SGN weather

Tan Son Nhat International Airport
Ho Chi Minh City, Ha Tinh Province, Vietnam

Public forecast

Using degrees Celsius for public forecast. Weather courtesy of forecast.io.

Current aviation weather report (METAR) for Tan Son Nhat International Airport

Retrieved 2019/10/18 19:30 UTC (11 minutes ago):

VVTS 181930Z VRB02KT 8000 FEW017 SCT040 25/25 Q1010 NOSIG

Aviation forecast (TAF) for Tan Son Nhat International Airport

Retrieved 2019/10/18 18:38 UTC (1 hour ago):

TAF VVTS 181700Z 1818/1924 VRB03KT 9999 SCT015 SCT040 BECMG 1821/1822 4000 BR BECMG 1900/1901 10010KT 9999 NSW TEMPO 1908/1911 10015G28KT 3000 TSRA SCT013 SCT015CB